Home > Products > Valid Products > TAF

000
FTUS45 KABQ 061727
TAFGUP
TAF
KGUP 061727Z 0618/0718 28008KT P6SM SCT060 SCT140
     FM062000 27012KT P6SM VCTS SCT070CB SCT150
      TEMPO 0621/0701 VRB20G30KT BKN050CB BKN120
     FM070100 26008KT P6SM VCSH BKN080 BKN130
     FM070600 VRB06KT P6SM SCT050 BKN150
     FM071400 22006KT P6SM SCT070 SCT150=



000
FTUS45 KABQ 061727
TAFSAF
TAF
KSAF 061727Z 0618/0718 36008KT P6SM SCT070 SCT150
     FM062000 08011KT P6SM VCTS SCT070CB BKN120
      TEMPO 0621/0701 VRB18G28KT BKN060CB BKN100
     FM070100 12018G28KT P6SM VCTS BKN050CB
     FM070400 13015G25KT P6SM VCSH OVC040
     FM071100 16010KT P6SM OVC025=



000
FTUS45 KABQ 061727
TAFTCC
TAF
KTCC 061727Z 0618/0718 02015G25KT P6SM VCSH SCT060 BKN090
     FM062000 03015G22KT P6SM VCTS BKN060CB BKN090
      TEMPO 0621/0701 5SM TSRA OVC045CB
     FM070100 04018G28KT P6SM VCTS BKN040CB BKN080
     FM070400 04015KT 5SM -SHRA BR OVC025
     FM071000 03010KT P6SM OVC030
     FM071600 06008KT P6SM BKN030 BKN070=



000
FTUS45 KABQ 061727
TAFFMN
TAF
KFMN 061727Z 0618/0718 28006KT P6SM SCT080 SCT130
     FM062100 29015KT P6SM VCTS SCT090CB SCT150
     FM070200 33008KT P6SM VCSH BKN070 BKN120
     FM070700 10007KT P6SM BKN080 BKN140
     FM071600 16006KT P6SM SCT070 SCT140=



000
FTUS45 KABQ 061727
TAFLVS
TAF
KLVS 061727Z 0618/0718 05010KT P6SM OVC060
     FM062000 04012KT P6SM VCTS BKN050CB BKN120
      TEMPO 0620/0624 VRB18G28KT
     FM070000 06011KT P6SM VCTS BKN050CB BKN090
     FM070600 03010KT 5SM -SHRA BR OVC015
     FM071100 06007KT 4SM BR OVC012
     FM071700 17007KT P6SM BKN030=



000
FTUS45 KABQ 061727
TAFABQ
TAF
KABQ 061727Z 0618/0718 32007KT P6SM SCT070 SCT150
     FM062100 04010KT P6SM VCTS SCT080CB BKN150
      TEMPO 0622/0702 VRB18G28KT BKN070CB BKN120
     FM070200 09020G30KT P6SM VCSH BKN070
     FM070800 09023G35KT P6SM VCSH OVC050
     FM071500 10015G25KT P6SM BKN050 BKN090=



000
FTUS45 KABQ 061727
TAFROW
TAF
KROW 061727Z 0618/0718 VRB06KT P6SM SCT090 SCT150
      TEMPO 0619/0622 03008KT BKN090
     FM062200 05008KT P6SM VCTS BKN070CB BKN140
     FM070100 33009KT P6SM VCTS BKN060CB
      TEMPO 0702/0704 02010KT
     FM070400 03015G22KT P6SM VCTS BKN060CB
     FM070900 03015G25KT P6SM VCSH SCT025 BKN040=



000
FTUS45 KABQ 061133
TAFSAF
TAF
KSAF 061133Z 0612/0712 36006KT P6SM BKN110
     FM061800 32008KT P6SM FEW070 FEW150
     FM062200 06011KT P6SM VCTS SCT070CB BKN120
     FM070000 12017G27KT P6SM VCSH BKN070
     FM071100 12011KT P6SM BKN110=



000
FTUS45 KABQ 061133
TAFABQ
TAF
KABQ 061133Z 0612/0712 VRB06KT P6SM BKN120
     FM061900 33007KT P6SM FEW080 FEW150
     FM070000 06010KT P6SM VCTS SCT080CB BKN150
     FM070200 09020G32KT P6SM VCSH BKN080=



000
FTUS45 KABQ 061133
TAFFMN
TAF
KFMN 061133Z 0612/0712 28006KT P6SM BKN150
     FM061900 28007KT P6SM FEW090
     FM070000 29015KT P6SM VCTS SCT090CB SCT150
     FM070200 28009KT P6SM SCT090 BKN150=



000
FTUS45 KABQ 061133
TAFROW
TAF
KROW 061133Z 0612/0712 VRB06KT P6SM BKN150
     FM061900 25007KT P6SM FEW070 SCT150
     FM062300 31008KT P6SM VCTS SCT070CB BKN140
     FM070100 33009KT P6SM VCSH BKN070
     FM070400 03015KT P6SM VCTS BKN060CB
     FM070900 36012KT P6SM VCSH SCT025 BKN040=



000
FTUS45 KABQ 061133
TAFTCC
TAF
KTCC 061133Z 0612/0712 25007KT P6SM FEW150
     FM061800 07010KT P6SM FEW060
     FM062100 06015G25KT P6SM VCTS BKN060CB
     FM070000 04018G28KT P6SM VCSH SCT040 BKN060
     FM070900 03011KT 5SM BR VCSH OVC025=



000
FTUS45 KABQ 061133
TAFGUP
TAF
KGUP 061133Z 0612/0712 VRB05KT P6SM BKN150
     FM061800 28008KT P6SM FEW080
     FM062200 30009KT P6SM VCTS SCT080CB SCT150
     FM070100 26009KT P6SM VCSH SCT080 BKN150
     FM070400 VRB03KT P6SM FEW080 BKN150=



000
FTUS45 KABQ 061133
TAFLVS
TAF
KLVS 061133Z 0612/0712 01010KT P6SM SCT150 BKN300
     FM061800 05009KT P6SM FEW050 FEW150
     FM062000 04012KT P6SM VCTS SCT050CB BKN120
     FM070000 05011KT P6SM VCSH SCT050 BKN090
     FM070800 05009KT 5SM -SHRA BR OVC025=



000
FTUS45 KABQ 061133
TAFABQ
TAF
KABQ 061133Z 0612/0712 VRB06KT P6SM BKN120
     FM061900 33007KT P6SM FEW080 FEW150
     FM070000 06010KT P6SM VCTS SCT080CB BKN150
     FM070200 09020G32KT P6SM VCSH BKN080=



000
FTUS45 KABQ 061133
TAFGUP
TAF
KGUP 061133Z 0612/0712 VRB05KT P6SM BKN150
     FM061800 28008KT P6SM FEW080
     FM062200 30009KT P6SM VCTS SCT080CB SCT150
     FM070100 26009KT P6SM VCSH SCT080 BKN150
     FM070400 VRB03KT P6SM FEW080 BKN150=



000
FTUS45 KABQ 061133
TAFTCC
TAF
KTCC 061133Z 0612/0712 25007KT P6SM FEW150
     FM061800 07010KT P6SM FEW060
     FM062100 06015G25KT P6SM VCTS BKN060CB
     FM070000 04018G28KT P6SM VCSH SCT040 BKN060
     FM070900 03011KT 5SM BR VCSH OVC025=



000
FTUS45 KABQ 061133
TAFSAF
TAF
KSAF 061133Z 0612/0712 36006KT P6SM BKN110
     FM061800 32008KT P6SM FEW070 FEW150
     FM062200 06011KT P6SM VCTS SCT070CB BKN120
     FM070000 12017G27KT P6SM VCSH BKN070
     FM071100 12011KT P6SM BKN110=



000
FTUS45 KABQ 061133
TAFFMN
TAF
KFMN 061133Z 0612/0712 28006KT P6SM BKN150
     FM061900 28007KT P6SM FEW090
     FM070000 29015KT P6SM VCTS SCT090CB SCT150
     FM070200 28009KT P6SM SCT090 BKN150=



000
FTUS45 KABQ 061133
TAFROW
TAF
KROW 061133Z 0612/0712 VRB06KT P6SM BKN150
     FM061900 25007KT P6SM FEW070 SCT150
     FM062300 31008KT P6SM VCTS SCT070CB BKN140
     FM070100 33009KT P6SM VCSH BKN070
     FM070400 03015KT P6SM VCTS BKN060CB
     FM070900 36012KT P6SM VCSH SCT025 BKN040=



000
FTUS45 KABQ 061133
TAFLVS
TAF
KLVS 061133Z 0612/0712 01010KT P6SM SCT150 BKN300
     FM061800 05009KT P6SM FEW050 FEW150
     FM062000 04012KT P6SM VCTS SCT050CB BKN120
     FM070000 05011KT P6SM VCSH SCT050 BKN090
     FM070800 05009KT 5SM -SHRA BR OVC025=



000
FTUS45 KABQ 060537
TAFSAF
TAF
KSAF 060537Z 0606/0706 01008KT P6SM VCSH SCT060 BKN120
     FM060900 36006KT P6SM SCT040 BKN120
     FM061600 34007KT P6SM SCT050 SCT120
     FM061900 06008KT P6SM VCTS SCT060CB SCT150
     FM062200 14012G18KT P6SM VCTS BKN060CB BKN120
     FM070200 13015G25KT P6SM VCTS BKN040CB BKN090=



000
FTUS45 KABQ 060537
TAFGUP
TAF
KGUP 060537Z 0606/0706 22007KT P6SM VCSH SCT050 BKN080
     FM060800 21006KT P6SM SCT030 BKN100
     FM061500 23012KT P6SM SCT070 SCT150
     FM062000 26012KT P6SM VCTS BKN070CB BKN150
      TEMPO 0621/0624 VRB15G25KT=



000
FTUS45 KABQ 060537
TAFROW
TAF
KROW 060537Z 0606/0706 21007KT P6SM BKN100
     FM061500 VRB06KT P6SM SCT150
     FM061900 35007KT P6SM SCT080 SCT150
     FM062300 03013KT P6SM VCTS BKN080CB BKN140
     FM070300 03015KT P6SM VCTS BKN040CB BKN090=



000
FTUS45 KABQ 060537
TAFLVS
TAF
KLVS 060537Z 0606/0706 25008KT P6SM BKN080 BKN120
     FM060900 04008KT P6SM BKN100
     FM061200 01010KT P6SM BKN040
     FM061800 07008KT P6SM VCTS BKN050CB BKN100
     FM062200 04012KT P6SM VCTS OVC040CB
     FM070300 05007KT 5SM -RA BR OVC025=



000
FTUS45 KABQ 060537
TAFABQ
TAF
KABQ 060537Z 0606/0706 24007KT P6SM VCSH BKN060 BKN100
     FM060900 15006KT P6SM BKN100
     FM061500 21006KT P6SM SCT060 SCT150
     FM062100 32006KT P6SM VCTS BKN070CB BKN150
     FM062300 09012G20KT P6SM VCTS BKN070CB BKN120
     FM070300 09020G32KT P6SM VCTS BKN050CB BKN090=



000
FTUS45 KABQ 060537
TAFROW
TAF
KROW 060537Z 0606/0706 21007KT P6SM BKN100
     FM061500 VRB06KT P6SM SCT150
     FM061900 35007KT P6SM SCT080 SCT150
     FM062300 03013KT P6SM VCTS BKN080CB BKN140
     FM070300 03015KT P6SM VCTS BKN040CB BKN090=



000
FTUS45 KABQ 060537
TAFLVS
TAF
KLVS 060537Z 0606/0706 25008KT P6SM BKN080 BKN120
     FM060900 04008KT P6SM BKN100
     FM061200 01010KT P6SM BKN040
     FM061800 07008KT P6SM VCTS BKN050CB BKN100
     FM062200 04012KT P6SM VCTS OVC040CB
     FM070300 05007KT 5SM -RA BR OVC025=



000
FTUS45 KABQ 060537
TAFABQ
TAF
KABQ 060537Z 0606/0706 24007KT P6SM VCSH BKN060 BKN100
     FM060900 15006KT P6SM BKN100
     FM061500 21006KT P6SM SCT060 SCT150
     FM062100 32006KT P6SM VCTS BKN070CB BKN150
     FM062300 09012G20KT P6SM VCTS BKN070CB BKN120
     FM070300 09020G32KT P6SM VCTS BKN050CB BKN090=



000
FTUS45 KABQ 060537
TAFTCC
TAF
KTCC 060537Z 0606/0706 24008KT P6SM SCT070 BKN100
     FM060900 32007KT P6SM BKN100 BKN150
     FM061300 03012G18KT P6SM SCT080 SCT150
     FM061800 07010KT P6SM BKN060 BKN090
     FM062200 03015G22KT P6SM VCTS BKN040CB OVC070
     FM070400 05015KT 5SM BR VCSH OVC025=



000
FTUS45 KABQ 060537
TAFFMN
TAF
KFMN 060537Z 0606/0706 31007KT P6SM VCTS BKN080CB
      TEMPO 0606/0608 VRB20G30KT
     FM060900 33006KT P6SM SCT070 BKN150
     FM061500 28007KT P6SM SCT070 SCT150
     FM062200 29015KT P6SM VCTS SCT080CB SCT150=



000
FTUS45 KABQ 060537
TAFGUP
TAF
KGUP 060537Z 0606/0706 22007KT P6SM VCSH SCT050 BKN080
     FM060800 21006KT P6SM SCT030 BKN100
     FM061500 23012KT P6SM SCT070 SCT150
     FM062000 26012KT P6SM VCTS BKN070CB BKN150
      TEMPO 0621/0624 VRB15G25KT=



000
FTUS45 KABQ 060537
TAFSAF
TAF
KSAF 060537Z 0606/0706 01008KT P6SM VCSH SCT060 BKN120
     FM060900 36006KT P6SM SCT040 BKN120
     FM061600 34007KT P6SM SCT050 SCT120
     FM061900 06008KT P6SM VCTS SCT060CB SCT150
     FM062200 14012G18KT P6SM VCTS BKN060CB BKN120
     FM070200 13015G25KT P6SM VCTS BKN040CB BKN090=



000
FTUS45 KABQ 060537
TAFTCC
TAF
KTCC 060537Z 0606/0706 24008KT P6SM SCT070 BKN100
     FM060900 32007KT P6SM BKN100 BKN150
     FM061300 03012G18KT P6SM SCT080 SCT150
     FM061800 07010KT P6SM BKN060 BKN090
     FM062200 03015G22KT P6SM VCTS BKN040CB OVC070
     FM070400 05015KT 5SM BR VCSH OVC025=



000
FTUS45 KABQ 060537
TAFFMN
TAF
KFMN 060537Z 0606/0706 31007KT P6SM VCTS BKN080CB
      TEMPO 0606/0608 VRB20G30KT
     FM060900 33006KT P6SM SCT070 BKN150
     FM061500 28007KT P6SM SCT070 SCT150
     FM062200 29015KT P6SM VCTS SCT080CB SCT150=



000
FTUS45 KABQ 052325
TAFLVS
TAF
KLVS 052325Z 0600/0624 22012G20KT P6SM VCTS SCT060CB BKN120
      TEMPO 0600/0603 VRB15G25KT 5SM TSRA BKN045CB
     FM060300 28008KT P6SM VCSH BKN060 OVC090
     FM060700 03008KT P6SM BKN080
     FM061200 01010KT P6SM BKN030
     FM061800 07008KT P6SM VCTS BKN050CB BKN100=



000
FTUS45 KABQ 052325
TAFSAF
TAF
KSAF 052325Z 0600/0624 23010KT P6SM VCTS SCT060CB BKN150
      TEMPO 0600/0603 VRB15G25KT TSRA BKN045CB
     FM060300 33006KT P6SM VCSH BKN060 BKN120
     FM060700 36006KT P6SM BKN100
     FM061600 21007KT P6SM SCT050 SCT120
     FM061900 18008KT P6SM VCTS SCT060CB SCT150
     FM062200 14012G18KT P6SM VCTS BKN060CB BKN120=



000
FTUS45 KABQ 052325
TAFTCC
TAF
KTCC 052325Z 0600/0624 20015G22KT P6SM VCTS SCT080CB BKN150
      TEMPO 0600/0603 VRB20G30KT BKN045CB OVC090
     FM060300 20008KT P6SM VCSH BKN060 BKN150
     FM060900 32007KT P6SM BKN080 BKN150
     FM061300 03012G18KT P6SM SCT080 SCT150
     FM061800 07010KT P6SM BKN060 BKN090
     FM062200 03010KT P6SM VCTS BKN040CB OVC070=



000
FTUS45 KABQ 052325
TAFROW
TAF
KROW 052325Z 0600/0624 25010KT P6SM SCT070 BKN150
     FM060100 16008KT P6SM VCTS BKN080CB BKN140
     FM060800 15006KT P6SM BKN100
     FM061500 VRB06KT P6SM SCT150
     FM061900 02008KT P6SM SCT080 SCT150
     FM062300 03013KT P6SM VCTS BKN080CB BKN140=



000
FTUS45 KABQ 052325
TAFFMN
TAF
KFMN 052325Z 0600/0624 29010KT P6SM VCTS SCT070CB BKN130
     FM060500 33007KT P6SM VCSH BKN080
     FM060800 07005KT P6SM SCT070 BKN150
     FM061500 28007KT P6SM SCT070 SCT150
     FM062200 29015KT P6SM VCTS SCT080CB SCT150=



000
FTUS45 KABQ 052325
TAFABQ
TAF
KABQ 052325Z 0600/0624 21007KT P6SM VCTS SCT060CB BKN130
      TEMPO 0600/0602 VRB15G25KT -SHRA BKN060
     FM060200 23007KT P6SM VCSH BKN060 BKN100
     FM060600 15006KT P6SM BKN100
     FM061500 21006KT P6SM SCT060 SCT150
     FM062100 32006KT P6SM VCTS BKN070CB BKN150
     FM062300 09012G20KT P6SM VCTS BKN060CB BKN120=



000
FTUS45 KABQ 052325
TAFGUP
TAF
KGUP 052325Z 0600/0624 26010KT P6SM VCTS SCT080CB BKN130
      TEMPO 0600/0603 VRB20G30KT 5SM TSRA BKN045CB
     FM060300 23008KT P6SM VCSH BKN080 OVC150
     FM060600 21006KT P6SM BKN090
     FM061500 23012KT P6SM SCT070 SCT150
     FM062000 26012KT P6SM VCTS BKN070CB BKN150
      TEMPO 0621/0624 VRB15G25KT=



000
FTUS45 KABQ 052142 AAA
TAFROW
TAF AMD
KROW 052142Z 0522/0618 21008G15KT P6SM VCSH SCT070 BKN200
     FM060100 25010KT P6SM SCT070 BKN200
     FM060800 31006KT P6SM BKN100=



000
FTUS45 KABQ 052142 AAA
TAFROW
TAF AMD
KROW 052142Z 0522/0618 21008G15KT P6SM VCSH SCT070 BKN200
     FM060100 25010KT P6SM SCT070 BKN200
     FM060800 31006KT P6SM BKN100=



000
FTUS45 KABQ 052125 AAB
TAFABQ
TAF AMD
KABQ 052125Z 0521/0618 30010KT P6SM VCTS SCT060CB BKN130
      TEMPO 0522/0602 VRB15G25KT 6SM TSRA BKN060CB
     FM060200 28008KT P6SM -SHRA BKN060 BKN100
     FM060600 VRB05KT P6SM BKN100=



000
FTUS45 KABQ 052125 AAB
TAFABQ
TAF AMD
KABQ 052125Z 0521/0618 30010KT P6SM VCTS SCT060CB BKN130
      TEMPO 0522/0602 VRB15G25KT 6SM TSRA BKN060CB
     FM060200 28008KT P6SM -SHRA BKN060 BKN100
     FM060600 VRB05KT P6SM BKN100=



000
FTUS45 KABQ 051737
TAFGUP
TAF
KGUP 051737Z 0518/0618 26008KT P6SM FEW080 BKN140
     FM052200 26010KT P6SM VCTS SCT080CB BKN130
      TEMPO 0523/0602 VRB20G30KT 5SM TSRA BKN060CB
     FM060200 23008KT P6SM VCSH BKN080 OVC150
     FM060600 VRB05KT P6SM BKN090=



000
FTUS45 KABQ 051737
TAFSAF
TAF
KSAF 051737Z 0518/0618 22006KT P6SM FEW070 SCT150
     FM052200 29010KT P6SM VCTS SCT060CB BKN150
      TEMPO 0600/0603 VRB15G25KT 6SM TSRA BKN060CB
     FM060300 33006KT P6SM VCSH BKN060 BKN120
     FM060700 36005KT P6SM BKN100=



000
FTUS45 KABQ 051737
TAFLVS
TAF
KLVS 051737Z 0518/0618 22010G16KT P6SM FEW060 SCT130
     FM052200 22016G26KT P6SM VCTS SCT060CB BKN120
      TEMPO 0600/0602 VRB15G25KT 5SM TSRA BKN050CB
     FM060200 28008KT P6SM -SHRA BKN060 OVC090
     FM061400 03011KT P6SM BKN080=



000
FTUS45 KABQ 051737
TAFROW
TAF
KROW 051737Z 0518/0618 18010G17KT P6SM SCT070
     FM052300 25010KT P6SM SCT070 BKN200
     FM060800 31006KT P6SM BKN100=



000
FTUS45 KABQ 051737
TAFTCC
TAF
KTCC 051737Z 0518/0618 20015G23KT P6SM SCT070
     FM060300 20010KT P6SM BKN150
     FM061300 03011G17KT P6SM SCT080 SCT150=



000
FTUS45 KABQ 051737
TAFFMN
TAF
KFMN 051737Z 0518/0618 28010KT P6SM FEW090 BKN140
     FM060000 28010KT P6SM VCTS SCT090CB BKN130
     FM060200 33007KT P6SM VCSH BKN090
     FM060500 07005KT P6SM BKN150=



000
FTUS45 KABQ 051737
TAFABQ
TAF
KABQ 051737Z 0518/0618 25006KT P6SM FEW070 SCT150
     FM052200 25010KT P6SM VCTS SCT060CB BKN130
      TEMPO 0522/0602 VRB15G25KT 6SM TSRA BKN060CB
     FM060200 28008KT P6SM -SHRA BKN060 BKN100
     FM060600 VRB05KT P6SM BKN100=



000
FTUS45 KABQ 051140
TAFFMN
TAF
KFMN 051140Z 0512/0612 VRB06KT P6SM BKN110
     FM051900 26007KT P6SM FEW090 BKN140
     FM060000 28010KT P6SM VCTS SCT090CB BKN130
     FM060200 33007KT P6SM VCSH BKN090
     FM060500 VRB05KT P6SM BKN090=



000
FTUS45 KABQ 051140
TAFGUP
TAF
KGUP 051140Z 0512/0612 VRB03KT P6SM BKN110
     FM051800 28007KT P6SM FEW080 BKN130
     FM052200 27009KT P6SM VCTS SCT080CB BKN130
     FM060100 22007KT P6SM VCSH BKN080
     FM060400 VRB05KT P6SM BKN090=



000
FTUS45 KABQ 051140
TAFLVS
TAF
KLVS 051140Z 0512/0612 VRB03KT P6SM BKN150
     FM051800 22015G25KT P6SM FEW060 SCT150
     FM052200 21016G26KT P6SM VCTS SCT060CB BKN120
     FM060100 22011KT P6SM VCSH SCT060 BKN090
     FM060400 VRB05KT P6SM FEW060 BKN090=



000
FTUS45 KABQ 051140
TAFROW
TAF
KROW 051140Z 0512/0612 VRB05KT P6SM BKN150
     FM051600 16010KT P6SM SCT150
     FM052000 18010G17KT P6SM SCT090 SCT250
     FM060200 20007KT P6SM FEW090 BKN200=



000
FTUS45 KABQ 051140
TAFTCC
TAF
KTCC 051140Z 0512/0612 21010KT P6SM FEW100 SCT150
     FM051500 20014KT P6SM SCT150
     FM052000 20015G22KT P6SM SCT090 SCT250
     FM060400 20008KT P6SM BKN150=



000
FTUS45 KABQ 051140
TAFABQ
TAF
KABQ 051140Z 0512/0612 VRB06KT P6SM FEW070 BKN110
     FM060000 25008KT P6SM VCTS SCT070CB BKN130
     FM060200 26009KT P6SM VCSH SCT070 BKN100
     FM060700 VRB05KT P6SM BKN100=



000
FTUS45 KABQ 051140
TAFROW
TAF
KROW 051140Z 0512/0612 VRB05KT P6SM BKN150
     FM051600 16010KT P6SM SCT150
     FM052000 18010G17KT P6SM SCT090 SCT250
     FM060200 20007KT P6SM FEW090 BKN200=



000
FTUS45 KABQ 051140
TAFSAF
TAF
KSAF 051140Z 0512/0612 01006KT P6SM BKN150
     FM051900 25007KT P6SM FEW060 SCT150
     FM052200 24009KT P6SM VCTS SCT060CB BKN150
     FM060000 22007KT P6SM VCSH SCT060 BKN120
     FM060500 VRB05KT P6SM BKN120=



000
FTUS45 KABQ 051140
TAFABQ
TAF
KABQ 051140Z 0512/0612 VRB06KT P6SM FEW070 BKN110
     FM060000 25008KT P6SM VCTS SCT070CB BKN130
     FM060200 26009KT P6SM VCSH SCT070 BKN100
     FM060700 VRB05KT P6SM BKN100=



000
FTUS45 KABQ 051140
TAFFMN
TAF
KFMN 051140Z 0512/0612 VRB06KT P6SM BKN110
     FM051900 26007KT P6SM FEW090 BKN140
     FM060000 28010KT P6SM VCTS SCT090CB BKN130
     FM060200 33007KT P6SM VCSH BKN090
     FM060500 VRB05KT P6SM BKN090=



000
FTUS45 KABQ 051140
TAFSAF
TAF
KSAF 051140Z 0512/0612 01006KT P6SM BKN150
     FM051900 25007KT P6SM FEW060 SCT150
     FM052200 24009KT P6SM VCTS SCT060CB BKN150
     FM060000 22007KT P6SM VCSH SCT060 BKN120
     FM060500 VRB05KT P6SM BKN120=



000
FTUS45 KABQ 051140
TAFTCC
TAF
KTCC 051140Z 0512/0612 21010KT P6SM FEW100 SCT150
     FM051500 20014KT P6SM SCT150
     FM052000 20015G22KT P6SM SCT090 SCT250
     FM060400 20008KT P6SM BKN150=



000
FTUS45 KABQ 051140
TAFLVS
TAF
KLVS 051140Z 0512/0612 VRB03KT P6SM BKN150
     FM051800 22015G25KT P6SM FEW060 SCT150
     FM052200 21016G26KT P6SM VCTS SCT060CB BKN120
     FM060100 22011KT P6SM VCSH SCT060 BKN090
     FM060400 VRB05KT P6SM FEW060 BKN090=



000
FTUS45 KABQ 051140
TAFGUP
TAF
KGUP 051140Z 0512/0612 VRB03KT P6SM BKN110
     FM051800 28007KT P6SM FEW080 BKN130
     FM052200 27009KT P6SM VCTS SCT080CB BKN130
     FM060100 22007KT P6SM VCSH BKN080
     FM060400 VRB05KT P6SM BKN090=



000
FTUS45 KABQ 050525
TAFSAF
TAF
KSAF 050525Z 0506/0606 VRB06KT P6SM SCT050 BKN110
     FM051500 22006KT P6SM SCT070 SCT140
     FM051900 24008KT P6SM VCSH SCT060 SCT150
     FM052100 25012KT P6SM VCTS SCT070CB SCT150=



000
FTUS45 KABQ 050525
TAFFMN
TAF
KFMN 050525Z 0506/0606 12007KT P6SM BKN060 BKN120
     FM051200 VRB06KT P6SM SCT030 SCT100
     FM051800 26007KT P6SM VCSH SCT080 BKN140
     FM052100 28013KT P6SM VCTS BKN080CB BKN130=



000
FTUS45 KABQ 050525
TAFABQ
TAF
KABQ 050525Z 0506/0606 14006KT P6SM SCT060 BKN100
     FM051300 VRB06KT P6SM SCT090 SCT150
     FM051700 23007KT P6SM SCT070 SCT150
     FM052000 21008KT P6SM VCSH BKN080 BKN140
     FM052200 24012KT P6SM VCTS BKN070CB BKN120=



000
FTUS45 KABQ 050525
TAFGUP
TAF
KGUP 050525Z 0506/0606 VRB06KT P6SM BKN060 BKN120
     FM051300 21006KT P6SM SCT030 SCT120
     FM051800 24008KT P6SM VCTS SCT070CB SCT150
     FM052100 25012KT P6SM VCTS BKN060CB BKN120
      TEMPO 0521/0523 VRB20G30KT=



000
FTUS45 KABQ 050525
TAFROW
TAF
KROW 050525Z 0506/0606 16008KT P6SM BKN150
     FM051600 16010KT P6SM SCT150
     FM052000 18012KT P6SM SCT090 SCT250=



000
FTUS45 KABQ 050525
TAFLVS
TAF
KLVS 050525Z 0506/0606 19008KT P6SM BKN050
     FM051100 18006KT 5SM BR OVC008
     FM051600 21015KT P6SM SCT030 SCT150
     FM051900 20015G25KT P6SM VCTS BKN060CB BKN120=



000
FTUS45 KABQ 050525
TAFTCC
TAF
KTCC 050525Z 0506/0606 21010KT P6SM SCT100 BKN150
     FM051500 20015KT P6SM SCT150
     FM052000 20015G22KT P6SM SCT090 SCT250=



000
FTUS45 KABQ 042336
TAFTCC
TAF
KTCC 042336Z 0500/0524 21015G25KT P6SM SCT070
     FM050200 20010KT P6SM VCSH BKN090 BKN140
     FM050700 20010KT P6SM SCT100 BKN150
     FM051500 20015KT P6SM SCT150=



000
FTUS45 KABQ 042336
TAFSAF
TAF
KSAF 042336Z 0500/0524 15010KT P6SM VCSH BKN070
      TEMPO 0500/0504 VRB18G30KT -TSRA OVC045CB
     FM050600 35006KT P6SM SCT050 BKN110
     FM051500 22006KT P6SM SCT070 SCT140
     FM051900 24008KT P6SM VCTS SCT070CB SCT150=



000
FTUS45 KABQ 042336
TAFROW
TAF
KROW 042336Z 0500/0524 16011KT P6SM SCT080 BKN150
     FM050300 17008KT P6SM BKN150
     FM051600 16010KT P6SM SCT150=



000
FTUS45 KABQ 042336
TAFLVS
TAF
KLVS 042336Z 0500/0524 20011G20KT P6SM VCSH SCT060 BKN150
      TEMPO 0500/0502 VRB20G30KT -TSRA OVC050CB
     FM050200 20010KT P6SM VCSH OVC040
     FM050500 19008KT P6SM BKN050
     FM051000 18006KT 5SM BR OVC008
     FM051600 21015KT P6SM SCT030 SCT150
     FM051900 20015G25KT P6SM VCTS BKN060CB BKN120=



000
FTUS45 KABQ 042336
TAFFMN
TAF
KFMN 042336Z 0500/0524 26007KT P6SM VCTS BKN080CB BKN140
      TEMPO 0500/0503 VRB20G32KT 5SM TSRA OVC045CB
     FM050500 12007KT P6SM VCSH BKN060 BKN120
     FM051400 VRB06KT P6SM SCT030 SCT100
     FM051800 26007KT P6SM VCSH SCT080 BKN140
     FM052100 24013KT P6SM VCTS BKN080CB BKN130=



000
FTUS45 KABQ 042336
TAFGUP
TAF
KGUP 042336Z 0500/0524 15007KT P6SM VCSH BKN060
      TEMPO 0500/0504 VRB20G32KT 5SM TSRA OVC030CB
     FM050600 12006KT P6SM VCSH BKN060 BKN120
     FM051300 21006KT P6SM SCT050 SCT120
     FM051800 24008KT P6SM VCTS SCT070CB SCT150
     FM052100 25012KT P6SM VCTS BKN060CB BKN120
      TEMPO 0521/0523 VRB20G30KT=



000
FTUS45 KABQ 042336
TAFABQ
TAF
KABQ 042336Z 0500/0524 16007KT P6SM VCSH SCT070 BKN150
      TEMPO 0500/0503 VRB12G30KT OVC050
     FM050600 14006KT P6SM SCT060 BKN100
     FM051300 VRB06KT P6SM SCT090 SCT150
     FM051700 23007KT P6SM SCT070 SCT150
     FM052000 21008KT P6SM VCSH BKN080 BKN140
     FM052200 24012KT P6SM VCTS BKN070CB BKN120=



000
FTUS45 KABQ 041910 AAB
TAFSAF
TAF AMD
KSAF 041910Z 0419/0518 24007KT P6SM VCSH SCT070 SCT140
      TEMPO 0419/0423 VRB20G32KT 3SM TSRA OVC040CB
     FM042300 34007KT P6SM VCSH BKN070
      TEMPO 0423/0503 VRB18G30KT 5SM TSRA OVC045CB
     FM050600 35007KT P6SM SCT050 BKN110=



000
FTUS45 KABQ 041903 AAA
TAFSAF
TAF AMD
KSAF 041903Z 0419/0518 24007KT P6SM VCSH SCT070 SCT140
      TEMPO 0419/0423 VRB20G32KT 5SM TSRA OVC040CB
     FM042300 34007KT P6SM VCSH BKN070
      TEMPO 0423/0503 VRB18G30KT 5SM TSRA OVC045CB
     FM050600 35007KT P6SM SCT050 BKN110=



000
FTUS45 KABQ 041821 AAA
TAFLVS
TAF AMD
KLVS 041821Z 0418/0518 20011G20KT P6SM VCTS SCT060CB BKN150
      TEMPO 0419/0423 VRB21G34KT 5SM TSRA OVC035CB
     FM050100 20010KT P6SM VCSH OVC040
     FM050500 19008KT P6SM BKN050=



000
FTUS45 KABQ 041821 AAA
TAFLVS
TAF AMD
KLVS 041821Z 0418/0518 20011G20KT P6SM VCTS SCT060CB BKN150
      TEMPO 0419/0423 VRB21G34KT 5SM TSRA OVC035CB
     FM050100 20010KT P6SM VCSH OVC040
     FM050500 19008KT P6SM BKN050=



000
FTUS45 KABQ 041740
TAFGUP
TAF
KGUP 041740Z 0418/0518 VRB03KT P6SM SCT120
     FM041900 24007KT P6SM VCSH BKN060
      TEMPO 0420/0424 VRB20G32KT 5SM TSRA OVC030CB
     FM050000 23010KT P6SM VCSH BKN050 BKN100
      TEMPO 0500/0503 VRB17G29KT 5SM TSRA OVC030CB
     FM050600 VRB05KT P6SM BKN060=



000
FTUS45 KABQ 041740
TAFFMN
TAF
KFMN 041740Z 0418/0518 VRB06KT P6SM FEW070 SCT150
     FM041900 16007KT P6SM SCT080
     FM042300 23011KT P6SM VCSH BKN080 BKN140
      TEMPO 0501/0505 VRB20G32KT 5SM TSRA OVC045CB
     FM050700 11007KT P6SM VCSH BKN060 BKN120
     FM051400 VRB06KT P6SM SCT030 SCT100=



000
FTUS45 KABQ 041740
TAFGUP
TAF
KGUP 041740Z 0418/0518 VRB03KT P6SM SCT120
     FM041900 24007KT P6SM VCSH BKN060
      TEMPO 0420/0424 VRB20G32KT 5SM TSRA OVC030CB
     FM050000 23010KT P6SM VCSH BKN050 BKN100
      TEMPO 0500/0503 VRB17G29KT 5SM TSRA OVC030CB
     FM050600 VRB05KT P6SM BKN060=



000
FTUS45 KABQ 041740
TAFFMN
TAF
KFMN 041740Z 0418/0518 VRB06KT P6SM FEW070 SCT150
     FM041900 16007KT P6SM SCT080
     FM042300 23011KT P6SM VCSH BKN080 BKN140
      TEMPO 0501/0505 VRB20G32KT 5SM TSRA OVC045CB
     FM050700 11007KT P6SM VCSH BKN060 BKN120
     FM051400 VRB06KT P6SM SCT030 SCT100=



000
FTUS45 KABQ 041740
TAFABQ
TAF
KABQ 041740Z 0418/0518 20008KT P6SM VCSH SCT070 SCT150
      TEMPO 0421/0501 VRB20G32KT -TSRA OVC050CB
     FM050100 24008KT P6SM VCSH BKN070 BKN140
      TEMPO 0501/0504 VRB18G30KT 5SM TSRA OVC045CB
     FM050600 VRB05KT P6SM SCT060 BKN100=



000
FTUS45 KABQ 041740
TAFLVS
TAF
KLVS 041740Z 0418/0518 19013KT P6SM SCT050 SCT200
     FM041930 20014G22KT P6SM VCSH SCT060 BKN150
      TEMPO 0421/0501 VRB21G34KT 5SM TSRA OVC035CB
     FM050100 20010KT P6SM VCSH OVC040
     FM050500 19008KT P6SM BKN050=



000
FTUS45 KABQ 041740
TAFSAF
TAF
KSAF 041740Z 0418/0518 VRB05KT P6SM SCT060 SCT140
     FM041900 24007KT P6SM VCSH SCT070 SCT140
      TEMPO 0421/0501 VRB20G32KT 5SM TSRA OVC040CB
     FM050100 34007KT P6SM VCSH BKN070
      TEMPO 0501/0504 VRB18G30KT 5SM TSRA OVC045CB
     FM050600 35007KT P6SM SCT050 BKN110=



000
FTUS45 KABQ 041740
TAFLVS
TAF
KLVS 041740Z 0418/0518 19013KT P6SM SCT050 SCT200
     FM041930 20014G22KT P6SM VCSH SCT060 BKN150
      TEMPO 0421/0501 VRB21G34KT 5SM TSRA OVC035CB
     FM050100 20010KT P6SM VCSH OVC040
     FM050500 19008KT P6SM BKN050=



000
FTUS45 KABQ 041740
TAFABQ
TAF
KABQ 041740Z 0418/0518 20008KT P6SM VCSH SCT070 SCT150
      TEMPO 0421/0501 VRB20G32KT -TSRA OVC050CB
     FM050100 24008KT P6SM VCSH BKN070 BKN140
      TEMPO 0501/0504 VRB18G30KT 5SM TSRA OVC045CB
     FM050600 VRB05KT P6SM SCT060 BKN100=



000
FTUS45 KABQ 041740
TAFTCC
TAF
KTCC 041740Z 0418/0518 21015G25KT P6SM SCT070
     FM050200 20009KT P6SM BKN200=



000
FTUS45 KABQ 041740
TAFSAF
TAF
KSAF 041740Z 0418/0518 VRB05KT P6SM SCT060 SCT140
     FM041900 24007KT P6SM VCSH SCT070 SCT140
      TEMPO 0421/0501 VRB20G32KT 5SM TSRA OVC040CB
     FM050100 34007KT P6SM VCSH BKN070
      TEMPO 0501/0504 VRB18G30KT 5SM TSRA OVC045CB
     FM050600 35007KT P6SM SCT050 BKN110=



000
FTUS45 KABQ 041740
TAFROW
TAF
KROW 041740Z 0418/0518 15009KT P6SM FEW070
     FM042100 16011KT P6SM SCT080
     FM050300 17008KT P6SM BKN250=



000
FTUS45 KABQ 041400 AAA
TAFLVS
TAF AMD
KLVS 041400Z 0414/0512 20012KT 1/4SM FG VV002
     FM041500 20013KT P6SM SCT020
     FM041800 20014G22KT P6SM VCSH SCT050
      TEMPO 0422/0502 5SM -TSRA OVC030CB
     FM050200 20010KT P6SM VCTS OVC040CB
     FM050500 19008KT P6SM BKN050=



000
FTUS45 KABQ 041400 AAA
TAFLVS
TAF AMD
KLVS 041400Z 0414/0512 20012KT 1/4SM FG VV002
     FM041500 20013KT P6SM SCT020
     FM041800 20014G22KT P6SM VCSH SCT050
      TEMPO 0422/0502 5SM -TSRA OVC030CB
     FM050200 20010KT P6SM VCTS OVC040CB
     FM050500 19008KT P6SM BKN050=



000
FTUS45 KABQ 041145
TAFTCC
TAF
KTCC 041145Z 0412/0512 22008KT P6SM BKN200
     FM041800 21015G25KT P6SM SCT080
     FM050200 20009KT P6SM BKN200=



000
FTUS45 KABQ 041145
TAFFMN
TAF
KFMN 041145Z 0412/0512 09006KT P6SM BKN200
     FM041900 16007KT P6SM SCT080
     FM050000 23011KT P6SM VCSH BKN080
      TEMPO 0502/0506 -TSRA OVC040CB
     FM050700 11007KT P6SM VCSH OVC040=



000
FTUS45 KABQ 041145
TAFGUP
TAF
KGUP 041145Z 0412/0512 VRB03KT P6SM SCT120
     FM041800 24007KT P6SM VCSH BKN060
      TEMPO 0421/0501 5SM -TSRA OVC030CB
     FM050100 23011KT P6SM VCTS OVC040CB
     FM050400 20008KT P6SM BKN040=



000
FTUS45 KABQ 041145
TAFLVS
TAF
KLVS 041145Z 0412/0512 19008KT 2SM BR VV002
     FM041400 20010KT P6SM SCT030
     FM041800 20014G22KT P6SM VCSH SCT050
      TEMPO 0422/0502 5SM -TSRA OVC030CB
     FM050200 20010KT P6SM VCTS OVC040CB
     FM050500 19008KT P6SM BKN050=



000
FTUS45 KABQ 041145
TAFROW
TAF
KROW 041145Z 0412/0512 03005KT P6SM BKN200
     FM041600 15009KT P6SM FEW070
     FM042100 16011KT P6SM SCT080
     FM050300 17008KT P6SM BKN250=



000
FTUS45 KABQ 041145
TAFABQ
TAF
KABQ 041145Z 0412/0512 VRB03KT P6SM SCT080
     FM041900 21007KT P6SM VCSH BKN070
      TEMPO 0423/0503 -TSRA OVC040CB
     FM050300 24008KT P6SM VCSH OVC050
     FM050600 VRB04KT P6SM BKN060=



000
FTUS45 KABQ 041145
TAFSAF
TAF
KSAF 041145Z 0412/0512 11006KT P6SM SCT080
     FM041800 24007KT P6SM VCSH SCT070
      TEMPO 0423/0503 5SM -TSRA OVC030CB
     FM050300 30007KT P6SM VCSH OVC050=



000
FTUS45 KABQ 041001 AAA
TAFLVS
TAF AMD
KLVS 041001Z 0410/0506 16007KT 2SM BR BKN002
     FM041400 19008KT P6SM SCT030
     FM041800 20011G21KT P6SM FEW060
     FM042200 20012G22KT P6SM VCTS SCT060CB SCT120
     FM050100 19010KT P6SM SCT060 BKN120=



000
FTUS45 KABQ 041001 AAA
TAFLVS
TAF AMD
KLVS 041001Z 0410/0506 16007KT 2SM BR BKN002
     FM041400 19008KT P6SM SCT030
     FM041800 20011G21KT P6SM FEW060
     FM042200 20012G22KT P6SM VCTS SCT060CB SCT120
     FM050100 19010KT P6SM SCT060 BKN120=



000
FTUS45 KABQ 040521
TAFTCC
TAF
KTCC 040521Z 0406/0506 06011KT P6SM VCSH SCT070 BKN150
      TEMPO 0406/0408 VRB15G35KT -TSRA BKN060CB
     FM040800 VRB06KT P6SM BKN100
     FM041800 22015G25KT P6SM FEW090
     FM042300 21015G25KT P6SM SCT090 BKN200
     FM050200 20009KT P6SM SCT090 BKN200=



000
FTUS45 KABQ 040521
TAFLVS
TAF
KLVS 040521Z 0406/0506 VRB06KT P6SM FEW060 BKN120
     FM041800 20011G21KT P6SM FEW060
     FM042200 20012G22KT P6SM VCTS SCT060CB SCT120
     FM050100 19010KT P6SM SCT060 BKN120=



000
FTUS45 KABQ 040521
TAFABQ
TAF
KABQ 040521Z 0406/0506 VRB05KT P6SM FEW080 BKN110
     FM041900 19008KT P6SM FEW070
     FM042300 20008KT P6SM VCSH SCT070 SCT150
     FM050200 VRB06KT P6SM SCT070 BKN150=



000
FTUS45 KABQ 040521
TAFROW
TAF
KROW 040521Z 0406/0506 VRB05KT P6SM BKN120
     FM041900 15009KT P6SM FEW070
     FM042300 16008KT P6SM SCT070 BKN200=



000
FTUS45 KABQ 040521
TAFGUP
TAF
KGUP 040521Z 0406/0506 VRB03KT P6SM VCTS SCT080CB BKN150
      TEMPO 0406/0408 VRB15G35KT -TSRA BKN060CB
     FM041800 24007KT P6SM FEW060
     FM042200 25010KT P6SM VCTS SCT060CB BKN120
     FM050100 23011KT P6SM VCSH SCT060 BKN120
     FM050500 VRB03KT P6SM FEW060 BKN120=



000
FTUS45 KABQ 040521
TAFSAF
TAF
KSAF 040521Z 0406/0506 VRB06KT P6SM SCT060 BKN150
     FM041100 01007KT P6SM SCT150
     FM041800 25007KT P6SM FEW070
     FM042200 26009KT P6SM VCTS SCT070CB SCT150
     FM050000 12011KT P6SM SCT070 BKN150=



000
FTUS45 KABQ 040521
TAFFMN
TAF
KFMN 040521Z 0406/0506 10007KT P6SM BKN100
     FM041900 16007KT P6SM FEW090
     FM050000 22011KT P6SM VCSH SCT080 SCT150
     FM050400 VRB05KT P6SM BKN080=



000
FTUS45 KABQ 040427 AAA
TAFTCC
TAF AMD
KTCC 040427Z 0404/0424 21007KT P6SM VCSH SCT070 BKN150
      TEMPO 0404/0406 VRB15G35KT -TSRA BKN060CB
     FM040700 22006KT P6SM BKN100
     FM041800 22015G25KT P6SM FEW090
     FM042300 21015G25KT P6SM SCT090 BKN200=



000
FTUS45 KABQ 040249 AAA
TAFFMN
TAF AMD
KFMN 040249Z 0403/0424 25010KT P6SM VCTS SCT090CB SCT150
      TEMPO 0402/0404 VRB15G25KT 6SM -TSRA BKN070CB
     FM040400 11011KT P6SM VCSH BKN080
     FM040700 10007KT P6SM BKN100
     FM041900 09007KT P6SM FEW060
     FM042300 22011KT P6SM VCSH SCT080 SCT150=



000
FTUS45 KABQ 032342
TAFFMN
TAF
KFMN 032342Z 0400/0424 25010KT P6SM VCTS SCT090CB SCT150
      TEMPO 0400/0402 VRB15G25KT 6SM -TSRA BKN070CB
     FM040200 11011KT P6SM VCSH BKN080
     FM040700 10007KT P6SM BKN100
     FM041900 09007KT P6SM FEW060
     FM042300 22011KT P6SM VCSH SCT080 SCT150=



000
FTUS45 KABQ 032342
TAFROW
TAF
KROW 032342Z 0400/0424 12011KT P6SM SCT070 BKN120
      TEMPO 0400/0402 VRB15G25KT -SHRA BKN060
     FM040400 VRB05KT P6SM BKN120
     FM041900 15009KT P6SM FEW070=



000
FTUS45 KABQ 032342
TAFGUP
TAF
KGUP 032342Z 0400/0424 21010KT P6SM VCTS SCT080CB BKN150
      TEMPO 0400/0403 VRB15G30KT -TSRA BKN060CB
     FM040300 20011KT P6SM VCSH BKN080
     FM040700 VRB03KT P6SM BKN080
     FM041800 24007KT P6SM FEW060
     FM042200 25010KT P6SM VCTS SCT060CB BKN120=



000
FTUS45 KABQ 032342
TAFLVS
TAF
KLVS 032342Z 0400/0424 19009KT P6SM SCT060 BKN120
     FM040500 VRB06KT P6SM FEW060 BKN120
     FM041800 20011G21KT P6SM FEW060
     FM042200 20012G22KT P6SM VCTS SCT060CB SCT120=



000
FTUS45 KABQ 032342
TAFSAF
TAF
KSAF 032342Z 0400/0424 VRB06KT P6SM SCT060 BKN150
      TEMPO 0401/0404 12011G22KT
     FM041100 01007KT P6SM SCT150
     FM041800 25007KT P6SM FEW070
     FM042200 26009KT P6SM VCTS SCT070CB SCT150=



000
FTUS45 KABQ 032342
TAFTCC
TAF
KTCC 032342Z 0400/0424 20007KT P6SM SCT070 BKN200
     FM040200 21007KT P6SM VCSH SCT070 BKN150
     FM040500 22006KT P6SM BKN100
     FM041800 22015G25KT P6SM FEW090
     FM042300 21015G25KT P6SM SCT090 BKN200=



000
FTUS45 KABQ 032342
TAFABQ
TAF
KABQ 032342Z 0400/0424 31008KT P6SM VCSH SCT070 BKN120
      TEMPO 0400/0403 VRB22G35KT 6SM -TSRA SCT040 BKN060CB
     FM040700 09010KT P6SM FEW080 BKN110
     FM041900 19008KT P6SM FEW070
     FM042300 20008KT P6SM VCSH SCT070 SCT150=



    US Dept of Commerce
    National Oceanic and Atmospheric Administration
    National Weather Service
    1325 East West Highway
    Silver Spring, MD 20910
    Page Author: NWS Internet Services Team
Disclaimer
Information Quality
Credits
Glossary
Privacy Policy
Freedom of Information Act (FOIA)
About Us
Career Opportunities